Time;durP1;ratioP1;P1;durP2;ratioP2;P2;SDS_P1;SDS_P2;PMS_P1;PMS_P2;Temp;Humidity;BMP_temperature;BMP_pressure;BME280_temperature;BME280_humidity;BME280_pressure;Samples;Min_cycle;Max_cycle;Signal;HPM_P1;HPM_P2
2022/10/25 00:00:21;;;;;;;31.80;15.40;;;;;;;12.91;100.00;99684.34;4195783;28;26512;-65
2022/10/25 00:02:47;;;;;;;29.93;14.67;;;;;;;12.90;100.00;99683.53;4206378;28;20240;-65
2022/10/25 00:05:14;;;;;;;30.77;15.13;;;;;;;12.91;100.00;99689.69;4212583;28;20250;-66
2022/10/25 00:07:41;;;;;;;36.00;16.03;;;;;;;12.88;100.00;99680.19;4195759;28;20236;-66
2022/10/25 00:10:08;;;;;;;30.73;14.67;;;;;;;12.88;100.00;99680.19;4197167;28;20713;-66
2022/10/25 00:12:40;;;;;;;31.07;15.47;;;;;;;12.88;100.00;99686.34;4198165;28;21736;-65
2022/10/25 00:15:07;;;;;;;29.87;15.07;;;;;;;12.93;100.00;99672.47;4201857;28;20248;-66
2022/10/25 00:17:34;;;;;;;27.77;13.63;;;;;;;12.86;100.00;99679.53;4204686;28;20225;-67
2022/10/25 00:20:00;;;;;;;31.37;14.50;;;;;;;12.93;100.00;99668.97;4192186;28;20234;-66
2022/10/25 00:22:27;;;;;;;27.97;13.23;;;;;;;12.92;100.00;99662.78;4199945;28;20229;-67
2022/10/25 00:24:54;;;;;;;25.77;14.23;;;;;;;12.91;100.00;99676.34;4200537;28;20669;-67
2022/10/25 00:27:21;;;;;;;27.53;13.03;;;;;;;12.88;100.00;99674.84;4204351;28;22908;-67
2022/10/25 00:29:47;;;;;;;32.47;13.40;;;;;;;12.86;100.00;99682.22;4207545;28;20438;-66
2022/10/25 00:32:14;;;;;;;27.93;13.60;;;;;;;12.88;100.00;99685.53;4188502;28;20235;-64
2022/10/25 00:34:40;;;;;;;24.27;13.47;;;;;;;12.88;100.00;99674.84;4209671;28;21554;-67
2022/10/25 00:37:07;;;;;;;36.07;14.27;;;;;;;12.86;100.00;99671.53;4205539;28;20229;-64
2022/10/25 00:39:33;;;;;;;27.93;13.50;;;;;;;12.82;100.00;99675.56;4200314;28;20228;-66
2022/10/25 00:42:01;;;;;;;28.23;12.83;;;;;;;12.83;100.00;99675.38;4195357;28;20684;-65
2022/10/25 00:44:39;;;;;;;24.17;12.63;;;;;;;12.83;100.00;99671.88;4199462;28;20239;-65
2022/10/25 00:47:18;;;;;;;23.13;12.50;;;;;;;12.87;100.00;99673.19;4194661;28;20245;-67
2022/10/25 00:49:48;;;;;;;25.57;11.50;;;;;;;12.88;100.00;99680.19;4194252;28;20233;-67
2022/10/25 00:52:15;;;;;;;26.83;11.73;;;;;;;12.85;100.00;99681.38;4196495;28;20649;-66
2022/10/25 00:54:47;;;;;;;25.13;10.93;;;;;;;12.78;100.00;99675.09;4203978;28;22849;-68
2022/10/25 00:57:17;;;;;;;24.40;10.57;;;;;;;12.79;100.00;99667.91;4227822;28;21784;-67
2022/10/25 00:59:45;;;;;;;24.30;11.20;;;;;;;12.81;100.00;99668.56;4209798;28;20236;-67
2022/10/25 01:02:12;;;;;;;21.77;11.30;;;;;;;12.80;100.00;99669.56;4195372;28;20241;-67
2022/10/25 01:04:39;;;;;;;22.73;11.53;;;;;;;12.78;100.00;99663.56;4184849;28;20246;-67
2022/10/25 01:07:05;;;;;;;24.00;12.70;;;;;;;12.77;100.00;99661.91;4190977;28;20533;-66
2022/10/25 01:09:33;;;;;;;26.77;12.50;;;;;;;12.79;100.00;99660.72;4195828;28;22178;-64
2022/10/25 01:11:59;;;;;;;25.00;11.80;;;;;;;12.82;100.00;99664.88;4190861;28;20266;-68
2022/10/25 01:14:27;;;;;;;22.83;11.97;;;;;;;12.82;100.00;99664.88;4195701;28;20239;-65
2022/10/25 01:17:09;;;;;;;20.20;11.37;;;;;;;12.82;100.00;99667.56;4203209;28;20408;-67
2022/10/25 01:19:46;;;;;;;24.90;12.37;;;;;;;12.83;100.00;99662.03;4186712;28;20251;-66
2022/10/25 01:22:52;;;;;;;24.13;11.53;;;;;;;12.81;100.00;99663.22;4200309;28;20240;-69
2022/10/25 01:25:32;;;;;;;33.37;14.23;;;;;;;12.90;100.00;99667.50;4196372;28;20240;-66
2022/10/25 01:28:04;;;;;;;29.53;12.87;;;;;;;12.95;100.00;99666.97;4199815;28;20299;-66
2022/10/25 01:31:04;;;;;;;35.43;14.17;;;;;;;12.98;100.00;99670.09;4197443;28;20331;-68
2022/10/25 01:33:50;;;;;;;31.77;14.10;;;;;;;12.97;100.00;99670.25;4189654;28;20407;-67
2022/10/25 01:36:39;;;;;;;30.20;13.00;;;;;;;12.90;100.00;99672.84;4198736;28;20394;-66
2022/10/25 01:39:11;;;;;;;30.90;12.73;;;;;;;12.83;100.00;99679.88;4200013;28;20519;-65
2022/10/25 01:42:02;;;;;;;28.10;12.93;;;;;;;12.92;100.00;99673.47;4197593;28;22476;-65
2022/10/25 01:44:44;;;;;;;26.07;11.93;;;;;;;12.94;100.00;99684.81;4194469;28;26877;-65
2022/10/25 01:47:16;;;;;;;28.70;12.73;;;;;;;13.08;100.00;99689.34;4208843;28;22754;-67
2022/10/25 01:49:59;;;;;;;25.43;12.53;;;;;;;13.02;100.00;99686.59;4204710;28;20324;-66
2022/10/25 01:52:26;;;;;;;31.70;13.50;;;;;;;12.98;100.00;99680.78;4190088;28;21151;-67
2022/10/25 01:54:53;;;;;;;30.60;13.63;;;;;;;12.98;100.00;99679.94;4205873;28;20530;-66
2022/10/25 01:57:38;;;;;;;26.23;12.73;;;;;;;12.91;100.00;99674.50;4202755;28;20340;-67
2022/10/25 02:00:06;;;;;;;32.47;14.07;;;;;;;12.88;100.00;99682.88;4204562;28;20246;-67
2022/10/25 02:02:53;;;;;;;28.27;14.00;;;;;;;12.83;100.00;99677.19;4213041;28;21131;-65
2022/10/25 02:05:42;;;;;;;28.37;13.47;;;;;;;12.80;100.00;99677.56;4205369;28;20278;-67
2022/10/25 02:08:18;;;;;;;34.17;14.37;;;;;;;12.68;100.00;99669.16;4186707;28;20241;-65
2022/10/25 02:11:05;;;;;;;28.93;13.93;;;;;;;12.70;100.00;99671.66;4207022;28;20239;-65
2022/10/25 02:13:52;;;;;;;29.23;13.90;;;;;;;12.76;100.00;99676.25;4205645;28;20234;-67
2022/10/25 02:16:42;;;;;;;26.80;13.87;;;;;;;12.90;100.00;99680.84;4197142;28;21252;-66
2022/10/25 02:19:13;;;;;;;27.90;14.07;;;;;;;12.90;100.00;99675.50;4203488;28;20239;-66
2022/10/25 02:21:41;;;;;;;27.57;14.20;;;;;;;12.71;100.00;99665.28;4210903;28;21460;-67
2022/10/25 02:24:12;;;;;;;28.03;13.57;;;;;;;12.70;100.00;99668.97;4196086;28;20286;-65
2022/10/25 02:26:41;;;;;;;31.07;14.27;;;;;;;12.77;100.00;99673.41;4210927;28;20508;-67
2022/10/25 02:29:09;;;;;;;36.03;15.17;;;;;;;12.69;100.00;99668.16;4197370;28;20247;-67
2022/10/25 02:31:36;;;;;;;27.17;14.37;;;;;;;12.67;100.00;99659.50;4214357;28;20237;-66
2022/10/25 02:34:04;;;;;;;28.63;15.43;;;;;;;12.61;100.00;99661.00;4201513;28;20234;-66
2022/10/25 02:36:31;;;;;;;30.87;14.03;;;;;;;12.63;100.00;99664.34;4202845;28;20237;-68
2022/10/25 02:38:58;;;;;;;26.60;14.80;;;;;;;12.62;100.00;99660.03;4205900;28;20236;-67
2022/10/25 02:41:25;;;;;;;31.43;14.97;;;;;;;12.72;100.00;99667.78;4201510;28;21081;-65
2022/10/25 02:43:51;;;;;;;30.70;14.03;;;;;;;12.80;100.00;99672.22;4205902;28;20466;-67
2022/10/25 02:46:20;;;;;;;31.67;14.57;;;;;;;12.74;100.00;99667.63;4199357;28;21606;-65
2022/10/25 02:48:47;;;;;;;30.07;14.33;;;;;;;12.66;100.00;99677.31;4200372;28;20234;-65
2022/10/25 02:51:14;;;;;;;25.77;13.30;;;;;;;12.70;100.00;99661.78;4194837;28;22890;-68
2022/10/25 02:53:41;;;;;;;29.37;14.97;;;;;;;12.62;100.00;99654.69;4208563;28;20229;-66
2022/10/25 02:56:15;;;;;;;29.73;14.13;;;;;;;12.65;100.00;99659.66;4196836;28;20232;-65
2022/10/25 02:58:43;;;;;;;30.33;14.67;;;;;;;12.65;100.00;99659.66;4202706;28;20338;-65
2022/10/25 03:01:10;;;;;;;30.07;13.23;;;;;;;12.74;100.00;99662.28;4201727;28;20539;-67
2022/10/25 03:03:37;;;;;;;26.63;12.77;;;;;;;12.78;100.00;99653.75;4204396;28;22256;-65
2022/10/25 03:06:04;;;;;;;30.53;13.50;;;;;;;12.76;100.00;99660.25;4199747;28;20247;-65
2022/10/25 03:08:31;;;;;;;29.70;14.00;;;;;;;12.80;100.00;99651.69;4197154;28;20237;-67
2022/10/25 03:10:58;;;;;;;26.97;13.37;;;;;;;12.87;100.00;99649.16;4200912;28;21052;-65
2022/10/25 03:13:24;;;;;;;28.00;14.33;;;;;;;12.86;100.00;99644.84;4198651;28;20245;-66
2022/10/25 03:15:51;;;;;;;30.07;14.03;;;;;;;12.86;100.00;99650.16;4199948;28;20367;-66
2022/10/25 03:18:18;;;;;;;29.00;14.20;;;;;;;12.78;100.00;99643.06;4199187;28;20259;-65
2022/10/25 03:20:44;;;;;;;29.97;13.67;;;;;;;12.77;100.00;99651.25;4200476;28;20237;-64
2022/10/25 03:23:11;;;;;;;33.87;16.00;;;;;;;12.63;100.00;99656.34;4198442;28;20238;-67
2022/10/25 03:25:38;;;;;;;33.03;15.17;;;;;;;12.53;100.00;99666.41;4219546;28;23822;-64
2022/10/25 03:28:04;;;;;;;34.83;15.23;;;;;;;12.55;100.00;99656.41;4201191;28;20345;-69
2022/10/25 03:30:31;;;;;;;35.23;14.83;;;;;;;12.54;100.00;99652.06;4201055;28;20263;-65
2022/10/25 03:32:58;;;;;;;28.63;13.83;;;;;;;12.70;100.00;99658.31;4197292;28;20399;-65
2022/10/25 03:35:24;;;;;;;31.47;15.20;;;;;;;12.56;100.00;99655.38;4202683;28;20307;-65
2022/10/25 03:37:51;;;;;;;36.10;14.23;;;;;;;12.58;100.00;99660.56;4200596;28;20366;-67
2022/10/25 03:40:19;;;;;;;30.33;14.83;;;;;;;12.66;100.00;99661.31;4205915;28;20233;-65
2022/10/25 03:42:45;;;;;;;30.00;14.53;;;;;;;12.73;100.00;99658.75;4201580;28;22192;-66
2022/10/25 03:45:12;;;;;;;30.90;15.57;;;;;;;12.68;100.00;99648.63;4198276;28;21111;-68
2022/10/25 03:47:39;;;;;;;28.77;14.20;;;;;;;12.66;100.00;99653.28;4203854;28;20241;-65
2022/10/25 03:50:06;;;;;;;29.20;14.40;;;;;;;12.60;100.00;99656.69;4203312;28;21271;-64
2022/10/25 03:52:32;;;;;;;34.63;14.80;;;;;;;12.67;100.00;99654.97;4205069;28;21692;-64
2022/10/25 03:54:59;;;;;;;35.67;16.57;;;;;;;12.67;100.00;99649.63;4201816;28;20249;-66
2022/10/25 03:57:25;;;;;;;30.30;15.37;;;;;;;12.72;100.00;99653.63;4205013;28;20240;-66
2022/10/25 03:59:52;;;;;;;31.53;15.03;;;;;;;12.64;100.00;99642.00;4194327;28;21561;-68
2022/10/25 04:02:18;;;;;;;28.07;13.57;;;;;;;12.73;100.00;99644.59;4193547;28;20305;-65
2022/10/25 04:04:45;;;;;;;28.23;14.57;;;;;;;12.61;100.00;99644.19;4198471;28;22682;-65
2022/10/25 04:07:11;;;;;;;32.60;15.23;;;;;;;12.69;100.00;99649.47;4199261;28;20463;-66
2022/10/25 04:09:38;;;;;;;23.70;13.50;;;;;;;12.65;100.00;99645.50;4203742;28;21640;-66
2022/10/25 04:12:04;;;;;;;32.27;13.80;;;;;;;12.65;100.00;99643.63;4199066;28;20302;-66
2022/10/25 04:14:31;;;;;;;29.90;14.53;;;;;;;12.63;100.00;99636.81;4205828;28;21360;-65
2022/10/25 04:16:58;;;;;;;26.90;13.73;;;;;;;12.70;100.00;99631.59;4199664;28;20225;-65
2022/10/25 04:19:24;;;;;;;24.83;13.37;;;;;;;12.67;100.00;99641.63;4196358;28;20236;-66
2022/10/25 04:21:51;;;;;;;24.50;13.77;;;;;;;12.75;100.00;99642.56;4200478;28;20328;-65
2022/10/25 04:24:18;;;;;;;24.90;13.97;;;;;;;12.67;100.00;99640.81;4205368;28;20234;-67
2022/10/25 04:26:45;;;;;;;27.77;14.00;;;;;;;12.66;100.00;99647.13;4204008;28;20391;-67
2022/10/25 04:29:12;;;;;;;26.93;14.43;;;;;;;12.68;100.00;99645.94;4203042;28;21468;-67
2022/10/25 04:31:38;;;;;;;30.20;15.90;;;;;;;12.66;100.00;99645.28;4203346;28;20237;-65
2022/10/25 04:34:05;;;;;;;44.60;19.57;;;;;;;12.56;100.00;99647.38;4200460;28;20587;-64
2022/10/25 04:36:31;;;;;;;26.17;14.43;;;;;;;12.59;100.00;99643.50;4197608;28;20567;-64
2022/10/25 04:38:58;;;;;;;30.87;15.27;;;;;;;12.63;100.00;99634.16;4198256;28;20238;-65
2022/10/25 04:41:24;;;;;;;26.63;14.90;;;;;;;12.61;100.00;99639.66;4198826;28;22887;-65
2022/10/25 04:43:51;;;;;;;28.50;15.00;;;;;;;12.56;100.00;99628.69;4200368;28;20226;-67
2022/10/25 04:46:18;;;;;;;25.83;14.03;;;;;;;12.56;100.00;99633.22;4199109;28;20249;-65
2022/10/25 04:48:44;;;;;;;25.90;14.33;;;;;;;12.63;100.00;99632.31;4201942;28;20237;-66
2022/10/25 04:51:11;;;;;;;30.07;14.43;;;;;;;12.66;100.00;99629.28;4199378;28;21434;-67
2022/10/25 04:53:38;;;;;;;28.17;13.90;;;;;;;12.57;100.00;99630.38;4204257;28;20275;-65
2022/10/25 04:56:10;;;;;;;40.40;20.23;;;;;;;12.56;100.00;99634.03;4198855;28;23367;-67
2022/10/25 04:58:37;;;;;;;37.00;17.93;;;;;;;12.55;100.00;99640.38;4209107;28;20970;-66
2022/10/25 05:01:06;;;;;;;28.63;14.77;;;;;;;12.53;100.00;99644.25;4196465;28;20298;-66
2022/10/25 05:03:33;;;;;;;27.37;14.47;;;;;;;12.50;100.00;99634.72;4192700;28;20494;-64
2022/10/25 05:06:13;;;;;;;30.77;14.57;;;;;;;12.56;100.00;99644.72;4212308;28;20245;-67
2022/10/25 05:08:42;;;;;;;31.50;15.57;;;;;;;12.51;100.00;99638.25;4218769;28;20252;-67
2022/10/25 05:11:10;;;;;;;31.97;15.60;;;;;;;12.46;100.00;99650.28;4202382;28;20560;-66
2022/10/25 05:13:38;;;;;;;26.70;15.53;;;;;;;12.47;100.00;99645.75;4212768;28;20347;-66
2022/10/25 05:16:05;;;;;;;32.40;15.53;;;;;;;12.46;100.00;99644.94;4203446;28;20539;-67
2022/10/25 05:18:33;;;;;;;24.50;14.53;;;;;;;12.46;100.00;99647.59;4219668;28;20265;-66
2022/10/25 05:21:05;;;;;;;32.00;16.00;;;;;;;12.51;100.00;99647.09;4208782;28;20291;-66
2022/10/25 05:23:33;;;;;;;31.37;15.43;;;;;;;12.45;100.00;99647.78;4197412;28;20294;-62
2022/10/25 05:26:10;;;;;;;25.27;15.30;;;;;;;12.50;100.00;99652.59;4207409;28;20274;-73
2022/10/25 05:28:38;;;;;;;31.67;15.57;;;;;;;12.46;100.00;99654.78;4204673;28;20306;-73
2022/10/25 05:31:06;;;;;;;31.37;15.80;;;;;;;12.56;100.00;99665.22;4195550;28;20384;-73
2022/10/25 05:33:32;;;;;;;30.10;14.97;;;;;;;12.45;100.00;99666.44;4215033;28;20311;-73
2022/10/25 05:35:59;;;;;;;29.03;15.40;;;;;;;12.54;100.00;99670.72;4208727;28;20225;-71
2022/10/25 05:38:27;;;;;;;31.90;16.50;;;;;;;12.44;100.00;99672.81;4205801;28;22315;-74
2022/10/25 05:40:58;;;;;;;31.47;15.30;;;;;;;12.49;100.00;99675.78;4199942;28;20232;-71
2022/10/25 05:43:25;;;;;;;33.77;16.13;;;;;;;12.48;100.00;99678.63;4216976;28;20860;-70
2022/10/25 05:45:59;;;;;;;30.33;15.47;;;;;;;12.47;100.00;99672.44;4203617;28;21701;-72
2022/10/25 05:48:26;;;;;;;29.10;14.90;;;;;;;12.44;100.00;99678.97;4209349;28;20256;-73
2022/10/25 05:50:52;;;;;;;33.43;16.03;;;;;;;12.48;100.00;99681.28;4211396;28;22188;-72
2022/10/25 05:53:46;;;;;;;35.97;17.33;;;;;;;12.44;100.00;99686.97;4214035;28;20242;-70
2022/10/25 05:56:14;;;;;;;33.17;16.27;;;;;;;12.55;100.00;99691.09;4211881;28;20229;-72
2022/10/25 05:58:41;;;;;;;36.30;17.23;;;;;;;12.56;100.00;99687.41;4219005;28;20228;-70
2022/10/25 06:01:09;;;;;;;30.27;15.83;;;;;;;12.55;100.00;99685.75;4209302;28;20298;-69
2022/10/25 06:03:36;;;;;;;35.63;16.90;;;;;;;12.56;100.00;99691.91;4217096;28;20235;-70
2022/10/25 06:06:05;;;;;;;35.97;17.10;;;;;;;12.53;100.00;99687.78;4230249;28;20237;-71
2022/10/25 06:08:32;;;;;;;33.73;16.40;;;;;;;12.60;100.00;99694.06;4217253;28;21194;-70
2022/10/25 06:11:01;;;;;;;39.07;16.90;;;;;;;12.54;100.00;99689.41;4205454;28;20400;-70
2022/10/25 06:13:28;;;;;;;36.17;17.03;;;;;;;12.60;100.00;99698.56;4197577;28;20366;-76
2022/10/25 06:15:55;;;;;;;32.10;15.97;;;;;;;12.62;100.00;99702.72;4206488;28;20745;-74
2022/10/25 06:18:21;;;;;;;31.13;16.17;;;;;;;12.62;100.00;99704.56;4209398;28;20300;-72
2022/10/25 06:20:48;;;;;;;36.97;16.53;;;;;;;12.58;100.00;99698.75;4204953;28;20267;-73
2022/10/25 06:23:14;;;;;;;34.90;16.30;;;;;;;12.53;100.00;99703.78;4219204;28;20328;-71
2022/10/25 06:25:41;;;;;;;30.50;16.23;;;;;;;12.61;100.00;99702.91;4213987;28;20423;-70
2022/10/25 06:28:09;;;;;;;33.87;17.50;;;;;;;12.57;100.00;99709.59;4187996;28;20230;-70
2022/10/25 06:30:36;;;;;;;33.10;16.10;;;;;;;12.55;100.00;99701.78;4205737;28;20399;-71
2022/10/25 06:33:02;;;;;;;32.80;17.63;;;;;;;12.61;100.00;99711.72;4209311;28;20233;-69
2022/10/25 06:35:29;;;;;;;34.73;16.90;;;;;;;12.64;100.00;99694.53;4201827;28;20232;-68
2022/10/25 06:37:59;;;;;;;39.20;17.30;;;;;;;12.74;100.00;99697.00;4201463;28;20298;-70
2022/10/25 06:40:26;;;;;;;34.97;17.10;;;;;;;12.79;100.00;99706.13;4204031;28;20248;-69
2022/10/25 06:42:55;;;;;;;32.47;16.57;;;;;;;12.81;100.00;99706.78;4214523;28;20319;-70
2022/10/25 06:45:22;;;;;;;36.70;17.27;;;;;;;12.91;100.00;99705.72;4232285;28;20233;-70
2022/10/25 06:47:49;;;;;;;31.50;17.13;;;;;;;12.86;100.00;99695.56;4224729;28;21758;-70
2022/10/25 06:50:16;;;;;;;30.87;17.23;;;;;;;12.90;100.00;99704.88;4227088;28;20331;-69
2022/10/25 06:52:43;;;;;;;34.97;16.47;;;;;;;12.91;100.00;99698.53;4217460;28;20401;-67
2022/10/25 06:55:10;;;;;;;39.50;17.37;;;;;;;12.93;100.00;99699.19;4234045;28;20262;-69
2022/10/25 06:57:36;;;;;;;36.17;17.70;;;;;;;12.96;100.00;99703.31;4262592;28;20244;-66
2022/10/25 07:00:04;;;;;;;34.50;17.50;;;;;;;13.01;100.00;99700.94;4244022;28;20237;-71
2022/10/25 07:02:31;;;;;;;40.97;17.07;;;;;;;12.99;100.00;99701.13;4225542;28;20382;-72
2022/10/25 07:04:58;;;;;;;31.87;16.43;;;;;;;13.06;100.00;99703.91;4266844;28;20924;-72
2022/10/25 07:07:25;;;;;;;33.07;16.43;;;;;;;13.17;100.00;99711.50;4229232;28;20237;-71
2022/10/25 07:09:52;;;;;;;31.43;15.97;;;;;;;13.24;100.00;99707.09;4283267;28;20252;-70
2022/10/25 07:12:18;;;;;;;31.43;16.13;;;;;;;13.25;100.00;99702.56;4247172;28;20252;-71
2022/10/25 07:14:45;;;;;;;33.50;16.83;;;;;;;13.34;100.00;99712.22;4219281;28;20599;-70
2022/10/25 07:17:12;;;;;;;28.77;15.43;;;;;;;13.52;100.00;99704.69;4228088;28;21419;-71
2022/10/25 07:19:38;;;;;;;28.67;14.33;;;;;;;13.61;100.00;99712.66;4226252;28;20256;-72
2022/10/25 07:22:05;;;;;;;28.03;14.50;;;;;;;13.63;100.00;99702.63;4239281;28;21817;-69
2022/10/25 07:24:32;;;;;;;28.80;14.70;;;;;;;13.66;100.00;99700.38;4217722;28;20242;-69
2022/10/25 07:26:58;;;;;;;29.87;13.83;;;;;;;13.70;100.00;99700.88;4226295;28;20618;-75
2022/10/25 07:29:25;;;;;;;29.93;14.10;;;;;;;13.74;100.00;99694.13;4226179;28;20811;-73
2022/10/25 07:31:52;;;;;;;19.73;12.73;;;;;;;13.79;100.00;99704.25;4290745;28;20592;-74
2022/10/25 07:34:19;;;;;;;29.23;12.77;;;;;;;13.81;100.00;99692.38;4282333;28;20225;-74
2022/10/25 07:36:46;;;;;;;22.43;12.63;;;;;;;13.97;100.00;99690.53;4307469;28;21660;-72
2022/10/25 07:39:13;;;;;;;21.70;11.80;;;;;;;14.22;100.00;99689.22;4345370;28;21150;-71
2022/10/25 07:41:40;;;;;;;21.47;12.03;;;;;;;14.30;100.00;99705.16;4301427;28;21883;-71
2022/10/25 07:44:07;;;;;;;22.93;12.23;;;;;;;14.39;100.00;99707.72;4230390;28;20248;-72
2022/10/25 07:46:41;;;;;;;21.97;11.17;;;;;;;14.68;100.00;99699.66;4274162;28;20353;-74
2022/10/25 07:49:08;;;;;;;24.83;10.73;;;;;;;14.83;100.00;99702.28;4226158;28;20604;-68
2022/10/25 07:51:35;;;;;;;22.43;11.50;;;;;;;14.69;100.00;99709.34;4225022;28;20246;-66
2022/10/25 07:54:02;;;;;;;18.93;10.80;;;;;;;15.78;100.00;99705.56;4240190;28;20271;-71
2022/10/25 07:56:29;;;;;;;17.80;9.57;;;;;;;17.21;99.64;99711.88;4264498;28;20247;-76
2022/10/25 07:58:57;;;;;;;15.40;8.57;;;;;;;18.37;89.63;99720.41;4261273;28;21256;-76
2022/10/25 08:01:26;;;;;;;13.60;7.77;;;;;;;20.23;79.71;99736.03;4216513;28;20224;-75
2022/10/25 08:03:53;;;;;;;15.73;7.23;;;;;;;18.90;81.04;99714.78;4244248;28;20236;-75
2022/10/25 08:06:22;;;;;;;14.60;8.57;;;;;;;17.70;87.15;99710.63;4200320;28;20262;-78
2022/10/25 08:08:49;;;;;;;15.90;8.67;;;;;;;16.37;95.10;99713.09;4220019;28;21113;-78
2022/10/25 08:11:16;;;;;;;21.50;9.43;;;;;;;16.03;98.31;99709.41;4232415;28;22522;-76
2022/10/25 08:13:42;;;;;;;14.57;8.43;;;;;;;16.10;99.92;99712.13;4235269;28;21635;-74
2022/10/25 08:16:09;;;;;;;16.60;7.53;;;;;;;17.20;94.10;99710.19;4247269;28;20305;-76
2022/10/25 08:18:36;;;;;;;14.70;8.20;;;;;;;18.11;87.51;99716.75;4248581;28;20266;-73
2022/10/25 08:21:03;;;;;;;22.63;8.00;;;;;;;18.85;83.36;99723.50;4236359;28;20335;-74
2022/10/25 08:23:31;;;;;;;12.27;7.23;;;;;;;20.35;76.84;99740.69;4295937;28;21123;-73
2022/10/25 08:25:59;;;;;;;18.40;7.63;;;;;;;20.20;73.77;99731.06;4222977;28;21756;-75
2022/10/25 08:28:26;;;;;;;14.73;7.50;;;;;;;19.37;76.99;99726.88;4218450;28;20309;-74
2022/10/25 08:30:54;;;;;;;18.43;7.67;;;;;;;17.79;84.17;99718.44;4222479;28;20242;-74
2022/10/25 08:33:21;;;;;;;16.70;8.10;;;;;;;16.11;93.70;99716.50;4221210;28;20236;-74
2022/10/25 08:35:47;;;;;;;14.83;8.57;;;;;;;15.53;98.49;99713.22;4208814;28;20231;-71
2022/10/25 08:38:14;;;;;;;17.93;9.20;;;;;;;15.46;100.00;99712.34;4212597;28;20231;-78
2022/10/25 08:41:08;;;;;;;19.17;9.83;;;;;;;14.97;100.00;99713.97;4216882;28;20232;-76
2022/10/25 08:43:49;;;;;;;18.27;9.70;;;;;;;14.45;100.00;99715.03;4221481;28;20280;-76
2022/10/25 08:46:26;;;;;;;22.17;10.07;;;;;;;14.14;100.00;99716.91;4199737;28;20242;-76
2022/10/25 08:49:04;;;;;;;21.37;11.57;;;;;;;14.05;100.00;99717.19;4217248;28;20230;-76
2022/10/25 08:51:36;;;;;;;17.70;10.83;;;;;;;14.05;100.00;99720.69;4192258;28;20398;-76
2022/10/25 08:54:13;;;;;;;24.27;12.40;;;;;;;13.94;100.00;99724.66;4196605;28;21237;-76
2022/10/25 08:56:39;;;;;;;25.20;11.83;;;;;;;13.91;100.00;99716.19;4214006;28;20325;-77
2022/10/25 08:59:27;;;;;;;21.90;12.53;;;;;;;13.93;100.00;99717.66;4219214;28;20454;-74
2022/10/25 09:01:56;;;;;;;23.80;12.67;;;;;;;13.98;100.00;99718.94;4236882;28;20526;-77
2022/10/25 09:04:23;;;;;;;23.13;11.77;;;;;;;14.24;100.00;99708.59;4211207;28;27178;-75
2022/10/25 09:07:04;;;;;;;23.53;11.93;;;;;;;14.29;100.00;99716.06;4225408;28;20239;-75
2022/10/25 09:09:57;;;;;;;23.87;11.17;;;;;;;14.54;100.00;99716.59;4193783;28;22011;-76
2022/10/25 09:12:36;;;;;;;22.87;10.83;;;;;;;14.99;100.00;99722.66;4223734;28;20864;-75
2022/10/25 09:15:06;;;;;;;16.63;9.93;;;;;;;15.62;100.00;99723.59;4364707;28;20447;-76
2022/10/25 09:17:50;;;;;;;18.60;10.40;;;;;;;15.71;100.00;99731.50;4279734;28;20627;-78
2022/10/25 09:20:31;;;;;;;21.47;9.67;;;;;;;15.82;100.00;99723.75;4231518;28;20304;-74
2022/10/25 09:23:06;;;;;;;21.83;10.43;;;;;;;15.95;100.00;99738.28;4245150;28;22324;-74
2022/10/25 09:25:48;;;;;;;18.33;9.07;;;;;;;16.25;99.25;99737.00;4295529;28;21645;-76
2022/10/25 09:28:20;;;;;;;18.90;9.30;;;;;;;16.70;95.47;99747.31;4255739;28;20244;-77
2022/10/25 09:30:48;;;;;;;16.17;8.87;;;;;;;16.64;94.63;99740.03;4262961;28;20279;-75
2022/10/25 09:33:18;;;;;;;17.73;9.50;;;;;;;16.28;97.53;99743.84;4226948;28;20320;-78
2022/10/25 09:35:47;;;;;;;18.30;9.93;;;;;;;16.20;98.83;99744.84;4224157;28;21217;-76
2022/10/25 09:38:41;;;;;;;20.40;9.53;;;;;;;16.12;99.14;99746.84;4291542;28;25639;-76
2022/10/25 09:41:25;;;;;;;15.20;10.00;;;;;;;15.74;100.00;99748.06;4201393;28;20233;-75
2022/10/25 09:43:57;;;;;;;20.83;10.10;;;;;;;15.75;100.00;99743.50;4247178;28;20229;-75
2022/10/25 09:46:33;;;;;;;21.60;11.63;;;;;;;15.34;100.00;99736.97;4203106;28;21913;-77
2022/10/25 09:49:06;;;;;;;20.30;12.00;;;;;;;15.14;100.00;99739.47;4227201;28;20730;-76
2022/10/25 09:52:01;;;;;;;24.07;12.03;;;;;;;15.02;100.00;99732.97;4213955;28;20229;-75
2022/10/25 09:54:37;;;;;;;24.10;14.00;;;;;;;14.85;100.00;99732.41;4194728;28;20602;-74
2022/10/25 09:57:04;;;;;;;30.07;14.57;;;;;;;14.84;100.00;99735.25;4222830;28;22898;-75
2022/10/25 09:59:32;;;;;;;26.37;14.27;;;;;;;14.83;100.00;99733.59;4374495;28;21041;-76
2022/10/25 10:01:59;;;;;;;25.53;14.27;;;;;;;14.87;100.00;99732.22;4237839;28;21491;-73
2022/10/25 10:04:34;;;;;;;24.83;14.90;;;;;;;14.82;100.00;99732.78;4199545;28;20933;-75
2022/10/25 10:07:14;;;;;;;22.07;13.50;;;;;;;14.78;100.00;99731.50;4198672;28;21339;-77
2022/10/25 10:09:41;;;;;;;24.57;14.20;;;;;;;14.85;100.00;99736.94;4192898;28;22025;-76
2022/10/25 10:12:18;;;;;;;24.10;14.07;;;;;;;14.73;100.00;99733.91;4212833;28;22068;-74
2022/10/25 10:15:03;;;;;;;22.37;14.43;;;;;;;14.71;100.00;99736.78;4210892;28;22089;-76
2022/10/25 10:17:31;;;;;;;20.90;14.00;;;;;;;14.61;100.00;99728.22;4203577;28;20245;-76
2022/10/25 10:20:16;;;;;;;20.57;13.17;;;;;;;14.69;100.00;99720.06;4212021;28;20227;-75
2022/10/25 10:22:46;;;;;;;25.83;14.67;;;;;;;14.62;100.00;99724.50;4223245;28;21614;-77
2022/10/25 10:25:18;;;;;;;24.97;14.63;;;;;;;14.69;100.00;99714.69;4204580;28;21124;-75
2022/10/25 10:27:46;;;;;;;25.60;12.57;;;;;;;14.77;100.00;99714.59;4218910;28;21657;-74
2022/10/25 10:30:27;;;;;;;21.10;12.70;;;;;;;14.97;100.00;99730.84;4208422;28;20408;-75
2022/10/25 10:32:57;;;;;;;23.23;12.50;;;;;;;14.88;100.00;99720.47;4218519;28;20286;-75
2022/10/25 10:35:28;;;;;;;20.83;12.30;;;;;;;14.82;100.00;99722.06;4221801;28;21078;-75
2022/10/25 10:38:12;;;;;;;19.50;11.63;;;;;;;14.81;100.00;99724.94;4222979;28;20297;-74
2022/10/25 10:40:38;;;;;;;21.37;12.37;;;;;;;14.77;100.00;99728.00;4206558;28;21629;-76
2022/10/25 10:43:21;;;;;;;24.33;10.80;;;;;;;14.88;100.00;99726.66;4215978;28;20868;-75
2022/10/25 10:45:49;;;;;;;17.97;9.83;;;;;;;14.82;100.00;99727.44;4202567;28;20381;-74
2022/10/25 10:48:22;;;;;;;18.97;9.87;;;;;;;14.93;100.00;99731.44;4193904;28;21286;-77
2022/10/25 10:50:50;;;;;;;18.47;9.77;;;;;;;14.97;100.00;99730.03;4213777;28;20349;-68
2022/10/25 10:53:20;;;;;;;19.87;10.10;;;;;;;14.89;100.00;99728.31;4205878;28;20244;-72
2022/10/25 10:55:51;;;;;;;18.63;9.83;;;;;;;15.01;100.00;99731.31;4195398;28;20396;-70
2022/10/25 10:58:30;;;;;;;21.20;8.90;;;;;;;15.42;100.00;99727.97;4215379;28;20419;-71
2022/10/25 11:00:58;;;;;;;18.63;9.53;;;;;;;15.68;100.00;99731.88;4247476;28;20231;-71
2022/10/25 11:03:43;;;;;;;15.10;7.67;;;;;;;16.00;100.00;99742.03;4201786;28;20228;-71
2022/10/25 11:06:27;;;;;;;16.73;7.20;;;;;;;16.07;99.51;99742.06;4227278;28;20319;-70
2022/10/25 11:09:11;;;;;;;14.43;6.90;;;;;;;16.12;97.53;99744.97;4249725;28;20682;-72
2022/10/25 11:11:38;;;;;;;14.03;7.33;;;;;;;15.83;99.06;99735.31;4232373;28;20759;-70
2022/10/25 11:14:11;;;;;;;14.27;7.43;;;;;;;15.83;99.10;99746.88;4202190;28;22376;-70
2022/10/25 11:16:49;;;;;;;22.30;8.33;;;;;;;15.75;99.61;99738.97;4249161;28;20399;-73
2022/10/25 11:19:44;;;;;;;18.57;7.23;;;;;;;15.81;100.00;99751.59;4193569;28;20239;-71
2022/10/25 11:22:40;;;;;;;18.70;8.07;;;;;;;15.78;99.37;99745.78;4211328;28;20308;-73
2022/10/25 11:25:15;;;;;;;15.57;7.93;;;;;;;15.68;100.00;99747.97;4205738;28;20240;-73
2022/10/25 11:28:18;;;;;;;16.27;7.70;;;;;;;15.70;100.00;99737.88;4218205;28;20326;-71